Time;durP1;ratioP1;P1;durP2;ratioP2;P2;SDS_P1;SDS_P2;PMS_P1;PMS_P2;Temp;Humidity;BMP_temperature;BMP_pressure;BME280_temperature;BME280_humidity;BME280_pressure;Samples;Min_cycle;Max_cycle;Signal;HPM_P1;HPM_P2
2023/01/09 00:00:39;;;;;;;0.75;0.60;;;;;;;8.75;100.00;99171.25;6039361;23;20029;-91
2023/01/09 00:03:05;;;;;;;0.20;0.20;;;;;;;8.72;100.00;99160.31;6035444;23;20352;-92
2023/01/09 00:05:30;;;;;;;0.10;0.10;;;;;;;8.67;100.00;99158.13;6014935;23;20017;-90
2023/01/09 00:07:56;;;;;;;0.22;0.22;;;;;;;8.69;100.00;99150.16;5991755;23;20471;-92
2023/01/09 00:10:22;;;;;;;0.25;0.15;;;;;;;8.75;100.00;99164.94;5990043;23;20009;-92
2023/01/09 00:12:47;;;;;;;0.47;0.40;;;;;;;8.75;100.00;99160.19;6014546;23;20007;-91
2023/01/09 00:15:13;;;;;;;0.38;0.30;;;;;;;8.74;100.00;99142.06;6013471;23;20102;-92
2023/01/09 00:17:39;;;;;;;0.03;0.03;;;;;;;8.69;100.00;99139.09;6034239;23;20018;-92
2023/01/09 00:20:06;;;;;;;0.13;0.13;;;;;;;8.73;100.00;99150.81;6066112;23;20018;-92
2023/01/09 00:22:31;;;;;;;0.70;0.70;;;;;;;8.69;100.00;99145.41;6017812;23;20451;-92
2023/01/09 00:24:57;;;;;;;1.27;1.08;;;;;;;8.70;100.00;99137.84;6043298;23;20014;-92
2023/01/09 00:27:22;;;;;;;0.00;0.00;;;;;;;8.73;100.00;99131.47;6042194;23;20394;-91
2023/01/09 00:29:48;;;;;;;0.47;0.47;;;;;;;8.76;100.00;99139.63;6019406;23;20022;-92
2023/01/09 00:32:14;;;;;;;0.25;0.25;;;;;;;8.71;100.00;99120.84;6042582;23;20021;-92
2023/01/09 00:34:42;;;;;;;0.10;0.10;;;;;;;8.73;100.00;99123.16;6017766;23;20016;-92
2023/01/09 00:37:10;;;;;;;0.45;0.45;;;;;;;8.76;100.00;99133.31;6019528;23;20050;-92
2023/01/09 00:39:40;;;;;;;0.20;0.20;;;;;;;8.75;100.00;99115.97;6042609;23;20435;-92
2023/01/09 00:42:08;;;;;;;0.20;0.20;;;;;;;8.80;100.00;99122.91;6042835;23;20017;-91
2023/01/09 00:44:38;;;;;;;0.60;0.60;;;;;;;8.82;100.00;99121.25;6066873;23;20073;-92
2023/01/09 00:47:09;;;;;;;0.13;0.13;;;;;;;8.87;100.00;99117.13;6021112;23;20006;-91
2023/01/09 00:49:36;;;;;;;0.65;0.47;;;;;;;8.87;100.00;99122.66;6067715;23;20045;-92
2023/01/09 00:52:03;;;;;;;0.05;0.05;;;;;;;8.70;100.00;99101.91;6042488;23;20044;-92
2023/01/09 00:54:29;;;;;;;0.00;0.00;;;;;;;8.80;100.00;99117.38;6044314;23;20097;-92
2023/01/09 00:56:55;;;;;;;0.03;0.03;;;;;;;8.79;100.00;99107.53;6067916;23;20018;-92
2023/01/09 00:59:21;;;;;;;0.63;0.63;;;;;;;8.84;100.00;99118.03;6042385;23;20372;-91
2023/01/09 01:01:46;;;;;;;1.45;0.65;;;;;;;8.76;100.00;99106.44;6044270;23;20010;-91
2023/01/09 01:09:40;;;;;;;0.20;0.20;;;;;;;8.80;100.00;99112.63;6047942;23;20077;-92
2023/01/09 01:12:06;;;;;;;0.00;0.00;;;;;;;8.80;100.00;99112.63;6043661;23;20867;-92
2023/01/09 01:14:36;;;;;;;0.10;0.10;;;;;;;8.80;100.00;99114.63;6020556;23;20458;-92
2023/01/09 01:17:02;;;;;;;0.00;0.00;;;;;;;8.79;100.00;99115.84;6020323;23;20018;-92
2023/01/09 01:19:27;;;;;;;0.03;0.03;;;;;;;8.75;100.00;99109.66;6020868;23;20025;-91
2023/01/09 01:21:54;;;;;;;3.95;0.45;;;;;;;8.72;100.00;99105.03;6043817;23;20346;-91
2023/01/09 01:24:19;;;;;;;0.05;0.05;;;;;;;8.72;100.00;99099.50;6043804;23;20536;-92
2023/01/09 01:26:45;;;;;;;0.43;0.43;;;;;;;8.68;100.00;99099.63;6045086;23;20014;-91
2023/01/09 01:29:11;;;;;;;0.60;0.60;;;;;;;8.74;100.00;99108.09;6020461;23;20006;-92
2023/01/09 01:31:37;;;;;;;0.45;0.45;;;;;;;8.70;100.00;99091.63;6021741;23;20351;-93
2023/01/09 01:34:02;;;;;;;0.45;0.45;;;;;;;8.72;100.00;99093.97;6019197;23;20065;-92
2023/01/09 01:36:28;;;;;;;0.20;0.20;;;;;;;8.70;100.00;99079.81;6044012;23;20077;-92
2023/01/09 01:38:54;;;;;;;0.40;0.40;;;;;;;8.72;100.00;99080.16;6070245;23;20010;-94
2023/01/09 01:41:28;;;;;;;0.03;0.03;;;;;;;8.66;100.00;99076.38;6019926;23;20061;-93
2023/01/09 01:43:56;;;;;;;0.25;0.25;;;;;;;8.63;100.00;99049.66;6046289;23;20347;-94
2023/01/09 01:46:22;;;;;;;2.22;0.68;;;;;;;8.59;100.00;99055.28;6021735;23;20490;-94
2023/01/09 01:48:51;;;;;;;0.35;0.17;;;;;;;8.61;100.00;99054.88;6022459;23;20026;-93
2023/01/09 01:51:18;;;;;;;0.10;0.10;;;;;;;8.60;100.00;99048.56;6045878;23;20061;-93
2023/01/09 01:53:51;;;;;;;0.08;0.08;;;;;;;8.64;100.00;99054.75;6022431;23;19999;-92
2023/01/09 01:56:24;;;;;;;0.40;0.30;;;;;;;8.62;100.00;99045.31;6019377;23;20407;-93
2023/01/09 01:59:22;;;;;;;0.17;0.17;;;;;;;8.59;100.00;99040.69;6022038;23;20254;-93
2023/01/09 02:01:50;;;;;;;0.20;0.20;;;;;;;8.57;100.00;99023.81;6022418;23;20022;-92
2023/01/09 02:04:16;;;;;;;0.60;0.50;;;;;;;8.52;100.00;99029.91;6045633;23;20491;-92
2023/01/09 02:06:43;;;;;;;0.30;0.25;;;;;;;8.47;100.00;99011.13;6046310;23;20041;-92
2023/01/09 02:09:12;;;;;;;0.00;0.00;;;;;;;8.45;100.00;99010.81;6022521;23;20010;-92
2023/01/09 02:11:44;;;;;;;2.08;0.57;;;;;;;8.43;100.00;99000.19;6022857;23;20036;-94
2023/01/09 02:14:10;;;;;;;0.32;0.32;;;;;;;8.36;100.00;98979.09;6020881;23;20371;-93
2023/01/09 02:16:58;;;;;;;0.08;0.08;;;;;;;8.42;100.00;98984.81;6015975;23;20023;-93
2023/01/09 02:19:42;;;;;;;0.10;0.10;;;;;;;8.42;100.00;98985.59;6063326;23;20026;-92
2023/01/09 02:22:47;;;;;;;0.13;0.13;;;;;;;8.42;100.00;98980.06;6064991;23;20031;-92
2023/01/09 02:25:12;;;;;;;;;;;;;;;8.42;100.00;98982.84;6053714;23;20050;-90
2023/01/09 02:28:01;;;;;;;0.35;0.35;;;;;;;8.36;100.00;98973.59;6065563;23;19918;-91
2023/01/09 02:30:48;;;;;;;0.20;0.20;;;;;;;8.33;100.00;98963.41;6055767;23;20031;-92
2023/01/09 02:33:26;;;;;;;0.10;0.10;;;;;;;8.26;100.00;98958.09;6015006;23;20019;-91
2023/01/09 02:36:30;;;;;;;0.03;0.03;;;;;;;8.23;100.00;98967.28;6040468;23;20019;-91
2023/01/09 02:39:17;;;;;;;0.10;0.05;;;;;;;8.19;100.00;98957.56;6037736;23;20337;-93
2023/01/09 02:42:06;;;;;;;0.93;0.90;;;;;;;8.16;100.00;98956.50;6017021;23;20018;-91
2023/01/09 02:44:34;;;;;;;0.00;0.00;;;;;;;8.15;100.00;98941.13;6015627;23;20025;-92
2023/01/09 02:47:29;;;;;;;0.20;0.20;;;;;;;8.11;100.00;98929.44;6017300;23;20054;-91
2023/01/09 02:49:55;;;;;;;;;;;;;;;8.15;100.00;98932.84;6040829;23;20026;-93
2023/01/09 02:52:34;;;;;;;1.27;1.13;;;;;;;8.14;100.00;98928.53;6016022;23;19909;-92
2023/01/09 02:55:16;;;;;;;0.47;0.47;;;;;;;8.15;100.00;98921.78;6038453;23;20014;-91
2023/01/09 02:58:03;;;;;;;1.38;0.40;;;;;;;8.15;100.00;98924.56;6039805;23;20448;-92
2023/01/09 03:00:47;;;;;;;0.47;0.43;;;;;;;8.18;100.00;98923.66;6039051;23;20026;-91
2023/01/09 03:03:28;;;;;;;;;;;;;;;8.19;100.00;98922.44;6063614;23;20019;-91
2023/01/09 03:06:05;;;;;;;0.20;0.20;;;;;;;8.22;100.00;98923.53;6014984;23;20387;-93
2023/01/09 03:08:37;;;;;;;0.17;0.17;;;;;;;8.17;100.00;98919.34;6038671;23;20015;-91
2023/01/09 03:11:05;;;;;;;4.20;0.65;;;;;;;8.25;100.00;98928.94;6039211;23;20329;-92
2023/01/09 03:13:46;;;;;;;0.15;0.15;;;;;;;8.22;100.00;98929.81;6039308;23;20003;-91
2023/01/09 03:16:14;;;;;;;0.00;0.00;;;;;;;8.20;100.00;98920.44;6043255;23;20351;-93
2023/01/09 03:18:41;;;;;;;0.10;0.10;;;;;;;8.24;100.00;98921.09;6018619;23;20014;-91
2023/01/09 03:21:07;;;;;;;0.17;0.17;;;;;;;8.25;100.00;98917.88;6043549;23;20021;-92
2023/01/09 03:23:52;;;;;;;0.03;0.03;;;;;;;8.20;100.00;98924.00;6043983;23;20010;-91
2023/01/09 03:26:17;;;;;;;0.20;0.20;;;;;;;8.29;100.00;98929.59;6017819;23;20374;-92
2023/01/09 03:28:44;;;;;;;0.00;0.00;;;;;;;8.22;100.00;98924.31;6067680;23;20010;-92
2023/01/09 03:31:10;;;;;;;0.00;0.00;;;;;;;8.21;100.00;98916.47;6042322;23;20121;-91
2023/01/09 03:33:35;;;;;;;0.20;0.20;;;;;;;8.26;100.00;98907.59;6042431;23;20363;-92
2023/01/09 03:36:01;;;;;;;1.17;0.82;;;;;;;8.20;100.00;98932.28;6066988;23;20010;-91
2023/01/09 03:38:27;;;;;;;0.47;0.47;;;;;;;8.23;100.00;98914.81;6019237;23;20635;-91
2023/01/09 03:40:53;;;;;;;0.10;0.10;;;;;;;8.23;100.00;98922.31;6043407;23;20022;-91
2023/01/09 03:43:18;;;;;;;1.98;0.85;;;;;;;8.23;100.00;98920.31;6068957;23;20002;-92
2023/01/09 03:45:44;;;;;;;0.00;0.00;;;;;;;8.25;100.00;98923.41;6044697;23;20451;-91
2023/01/09 03:48:09;;;;;;;0.82;0.82;;;;;;;8.22;100.00;98915.25;6044507;23;20006;-93
2023/01/09 03:50:35;;;;;;;0.32;0.30;;;;;;;8.25;100.00;98926.16;6020299;23;20022;-91
2023/01/09 03:53:00;;;;;;;0.00;0.00;;;;;;;8.19;100.00;98914.16;6020931;23;20016;-91
2023/01/09 03:55:26;;;;;;;0.00;0.00;;;;;;;8.22;100.00;98913.25;6020893;23;20026;-92
2023/01/09 03:57:52;;;;;;;0.28;0.28;;;;;;;8.25;100.00;98917.88;6044587;23;20097;-91
2023/01/09 04:00:21;;;;;;;0.10;0.10;;;;;;;8.26;100.00;98918.66;6044568;23;19998;-92
2023/01/09 04:02:46;;;;;;;0.30;0.30;;;;;;;8.21;100.00;98899.91;6020066;23;20025;-91
2023/01/09 04:05:12;;;;;;;0.10;0.10;;;;;;;8.34;100.00;98906.94;6044559;23;20078;-92
2023/01/09 04:07:38;;;;;;;0.10;0.10;;;;;;;8.37;100.00;98903.25;6043623;23;20455;-92
2023/01/09 04:10:04;;;;;;;2.72;0.40;;;;;;;8.36;100.00;98898.97;6044560;23;20007;-92
2023/01/09 04:12:29;;;;;;;0.57;0.40;;;;;;;8.39;100.00;98895.31;6020531;23;20010;-91
2023/01/09 04:14:55;;;;;;;1.75;0.95;;;;;;;8.46;100.00;98904.56;6020842;23;20481;-91
2023/01/09 04:17:21;;;;;;;0.00;0.00;;;;;;;8.40;100.00;98899.63;6019444;23;20412;-91
2023/01/09 04:19:46;;;;;;;0.70;0.70;;;;;;;8.45;100.00;98898.28;6019471;23;20019;-91
2023/01/09 04:22:12;;;;;;;0.10;0.10;;;;;;;8.49;100.00;98881.56;6020126;23;20105;-92
2023/01/09 04:24:38;;;;;;;0.13;0.13;;;;;;;8.45;100.00;98880.91;6045025;23;20018;-92
2023/01/09 04:27:03;;;;;;;0.30;0.15;;;;;;;8.52;100.00;98875.13;6066894;23;20006;-92
2023/01/09 04:29:29;;;;;;;0.17;0.17;;;;;;;8.58;100.00;98892.66;6041181;23;20081;-93
2023/01/09 04:31:54;;;;;;;0.85;0.20;;;;;;;8.52;100.00;98880.66;6043603;23;20015;-91
2023/01/09 04:34:24;;;;;;;0.00;0.00;;;;;;;8.55;100.00;98885.28;6040605;23;20045;-92
2023/01/09 04:36:51;;;;;;;3.80;0.85;;;;;;;8.53;100.00;98879.44;6019454;23;20021;-92
2023/01/09 04:39:16;;;;;;;0.17;0.17;;;;;;;8.50;100.00;98877.56;6019357;23;20017;-92
2023/01/09 04:41:48;;;;;;;0.05;0.05;;;;;;;8.42;100.00;98875.06;6042080;23;20007;-91
2023/01/09 04:44:15;;;;;;;0.10;0.10;;;;;;;8.51;100.00;98890.16;6020279;23;20026;-93
2023/01/09 04:46:41;;;;;;;1.63;0.82;;;;;;;8.43;100.00;98879.38;6043933;23;20403;-92
2023/01/09 04:49:06;;;;;;;1.30;0.65;;;;;;;8.41;100.00;98875.53;6068020;23;20030;-92
2023/01/09 04:51:32;;;;;;;1.70;0.98;;;;;;;8.39;100.00;98889.78;6020375;23;20461;-93
2023/01/09 04:53:57;;;;;;;0.40;0.40;;;;;;;8.40;100.00;98891.34;6044991;23;20014;-93
2023/01/09 04:56:23;;;;;;;0.10;0.10;;;;;;;8.41;100.00;98887.31;6020806;23;20049;-94
2023/01/09 04:58:48;;;;;;;0.90;0.82;;;;;;;8.30;100.00;98881.41;6066183;23;20522;-91
2023/01/09 05:01:14;;;;;;;0.65;0.52;;;;;;;8.31;100.00;98885.72;6041236;23;20053;-92
2023/01/09 05:03:40;;;;;;;0.40;0.35;;;;;;;8.28;100.00;98883.06;6041844;23;20490;-91
2023/01/09 05:06:05;;;;;;;0.30;0.28;;;;;;;8.32;100.00;98890.03;6041259;23;20010;-91
2023/01/09 05:08:31;;;;;;;1.08;0.70;;;;;;;8.31;100.00;98893.25;6017870;23;20018;-91
2023/01/09 05:10:56;;;;;;;0.50;0.50;;;;;;;8.32;100.00;98890.03;6043299;23;20061;-90
2023/01/09 05:13:22;;;;;;;2.55;1.00;;;;;;;8.31;100.00;98896.78;6042943;23;20066;-92
2023/01/09 05:15:48;;;;;;;0.00;0.00;;;;;;;8.29;100.00;98890.91;6043401;23;20053;-91
2023/01/09 05:18:14;;;;;;;0.57;0.57;;;;;;;8.22;100.00;98884.84;6042255;23;20022;-91
2023/01/09 05:20:39;;;;;;;0.45;0.45;;;;;;;8.21;100.00;98894.38;6019561;23;20103;-91
2023/01/09 05:23:05;;;;;;;0.10;0.10;;;;;;;8.22;100.00;98895.91;6018810;23;20018;-91
2023/01/09 05:25:30;;;;;;;0.05;0.05;;;;;;;8.21;100.00;98894.38;6017113;23;20069;-91
2023/01/09 05:27:56;;;;;;;0.10;0.10;;;;;;;8.14;100.00;98887.09;6018355;23;20022;-91
2023/01/09 05:30:21;;;;;;;0.38;0.25;;;;;;;8.10;100.00;98888.44;6041798;23;20014;-92
2023/01/09 05:32:47;;;;;;;0.50;0.50;;;;;;;8.03;100.00;98880.41;6090956;23;20070;-91
2023/01/09 05:35:13;;;;;;;4.95;0.80;;;;;;;8.07;100.00;98894.88;6065686;23;20026;-91
2023/01/09 05:37:38;;;;;;;1.02;0.85;;;;;;;7.97;100.00;98885.72;6015216;23;20085;-91
2023/01/09 05:40:05;;;;;;;3.03;0.80;;;;;;;7.97;100.00;98885.72;6015512;23;20435;-91
2023/01/09 05:42:30;;;;;;;1.88;1.52;;;;;;;7.95;100.00;98886.19;6016493;23;20019;-90
2023/01/09 05:44:56;;;;;;;0.10;0.10;;;;;;;7.87;100.00;98875.81;6040190;23;20011;-92
2023/01/09 05:47:21;;;;;;;0.10;0.10;;;;;;;7.76;100.00;98878.97;6039829;23;20018;-91
2023/01/09 05:49:47;;;;;;;0.10;0.10;;;;;;;7.74;100.00;98872.31;6041011;23;20006;-90
2023/01/09 05:52:13;;;;;;;0.17;0.17;;;;;;;7.65;100.00;98869.47;6018362;23;20022;-92
2023/01/09 05:54:38;;;;;;;0.10;0.10;;;;;;;7.68;100.00;98874.91;5993734;23;20477;-91
2023/01/09 05:57:04;;;;;;;0.20;0.20;;;;;;;7.67;100.00;98883.59;6016953;23;20010;-90
2023/01/09 05:59:29;;;;;;;0.32;0.32;;;;;;;7.56;100.00;98861.91;6017721;23;20090;-91
2023/01/09 06:01:57;;;;;;;0.13;0.10;;;;;;;7.55;100.00;98860.34;6041783;23;20391;-90
2023/01/09 06:04:23;;;;;;;0.43;0.43;;;;;;;7.51;100.00;98859.69;6064592;23;20518;-91
2023/01/09 06:06:48;;;;;;;0.80;0.80;;;;;;;7.49;100.00;98862.88;6041333;23;20014;-90
2023/01/09 06:09:14;;;;;;;0.03;0.03;;;;;;;7.49;100.00;98871.16;6041011;23;20022;-92
2023/01/09 06:11:40;;;;;;;0.28;0.28;;;;;;;7.52;100.00;98874.25;6038025;23;20068;-90
2023/01/09 06:14:05;;;;;;;0.45;0.25;;;;;;;7.52;100.00;98872.28;6015589;23;20015;-92
2023/01/09 06:16:31;;;;;;;0.32;0.32;;;;;;;7.46;100.00;98869.28;6018872;23;20018;-90
2023/01/09 06:18:57;;;;;;;0.47;0.45;;;;;;;7.43;100.00;98861.13;6041814;23;20030;-91
2023/01/09 06:21:22;;;;;;;0.17;0.17;;;;;;;7.46;100.00;98866.53;6017766;23;20116;-90
2023/01/09 06:23:48;;;;;;;0.57;0.57;;;;;;;7.42;100.00;98868.66;6042824;23;20491;-92
2023/01/09 06:26:13;;;;;;;0.43;0.43;;;;;;;7.41;100.00;98864.34;6042484;23;20431;-92
2023/01/09 06:28:39;;;;;;;0.43;0.17;;;;;;;7.38;100.00;98861.69;6043791;23;20088;-91
2023/01/09 06:31:05;;;;;;;0.63;0.55;;;;;;;7.40;100.00;98854.50;6018340;23;20025;-91
2023/01/09 06:33:31;;;;;;;0.00;0.00;;;;;;;7.48;100.00;98858.56;6040948;23;20470;-90
2023/01/09 06:35:56;;;;;;;0.52;0.52;;;;;;;7.45;100.00;98848.44;6018908;23;20522;-90
2023/01/09 06:38:22;;;;;;;1.85;0.47;;;;;;;7.45;100.00;98856.72;6040415;23;20019;-92
2023/01/09 06:40:49;;;;;;;0.57;0.57;;;;;;;7.45;100.00;98861.44;6021104;23;20040;-92
2023/01/09 06:43:15;;;;;;;0.28;0.28;;;;;;;7.42;100.00;98851.31;6043171;23;20026;-93
2023/01/09 06:45:43;;;;;;;0.80;0.80;;;;;;;7.42;100.00;98863.13;6043531;23;20061;-92
2023/01/09 06:48:09;;;;;;;0.80;0.80;;;;;;;7.42;100.00;98863.13;6044422;23;20070;-92
2023/01/09 06:50:35;;;;;;;0.30;0.30;;;;;;;7.41;100.00;98867.09;6017578;23;20003;-93
2023/01/09 06:53:00;;;;;;;0.47;0.30;;;;;;;7.42;100.00;98860.38;6043097;23;20017;-92
2023/01/09 06:55:26;;;;;;;0.75;0.75;;;;;;;7.43;100.00;98859.16;6041643;23;20021;-95
2023/01/09 06:57:52;;;;;;;0.30;0.30;;;;;;;7.42;100.00;98852.09;6042482;23;20090;-92
2023/01/09 07:00:18;;;;;;;0.32;0.32;;;;;;;7.44;100.00;98849.66;6042640;23;20038;-92
2023/01/09 07:02:43;;;;;;;1.35;0.85;;;;;;;7.43;100.00;98853.63;6067306;23;20069;-92
2023/01/09 07:05:10;;;;;;;0.20;0.20;;;;;;;7.30;100.00;98830.81;6067108;23;20002;-91
2023/01/09 07:07:37;;;;;;;0.35;0.22;;;;;;;7.40;100.00;98849.00;6043787;23;20402;-92
2023/01/09 07:10:03;;;;;;;0.85;0.85;;;;;;;7.45;100.00;98851.19;6067593;23;20009;-94
2023/01/09 07:12:29;;;;;;;0.40;0.40;;;;;;;7.37;100.00;98838.84;6020580;23;20347;-94
2023/01/09 07:14:54;;;;;;;0.20;0.20;;;;;;;7.31;100.00;98835.13;6043725;23;20022;-93
2023/01/09 07:17:20;;;;;;;0.50;0.43;;;;;;;7.44;100.00;98854.41;6043494;23;20010;-95
2023/01/09 07:19:46;;;;;;;0.30;0.30;;;;;;;7.38;100.00;98850.66;6021880;23;20439;-93
2023/01/09 07:22:11;;;;;;;2.55;1.05;;;;;;;7.36;100.00;98845.56;6046136;23;20451;-93
2023/01/09 07:24:37;;;;;;;0.38;0.38;;;;;;;7.30;100.00;98843.81;6021760;23;20088;-94
2023/01/09 07:27:02;;;;;;;0.57;0.57;;;;;;;7.34;100.00;98842.50;6022117;23;20089;-92
2023/01/09 07:29:29;;;;;;;0.30;0.30;;;;;;;7.32;100.00;98858.72;6045500;23;20018;-93
2023/01/09 07:31:54;;;;;;;0.90;0.65;;;;;;;7.31;100.00;98857.19;6021267;23;20093;-93
2023/01/09 07:34:20;;;;;;;0.30;0.30;;;;;;;7.35;100.00;98857.84;6068453;23;20045;-92
2023/01/09 07:36:47;;;;;;;1.27;1.17;;;;;;;7.26;100.00;98849.47;6045247;23;20446;-94
2023/01/09 07:39:13;;;;;;;0.70;0.70;;;;;;;7.26;100.00;98838.44;6044686;23;20097;-94
2023/01/09 07:41:39;;;;;;;0.70;0.40;;;;;;;7.34;100.00;98861.81;6045276;23;20008;-95
2023/01/09 07:44:08;;;;;;;0.88;0.88;;;;;;;7.31;100.00;98857.19;6045967;23;20014;-93
2023/01/09 07:46:33;;;;;;;0.30;0.30;;;;;;;7.38;100.00;98867.22;6069491;23;20006;-94
2023/01/09 07:48:59;;;;;;;0.20;0.20;;;;;;;7.38;100.00;98870.75;6045150;23;20026;-94
2023/01/09 07:51:24;;;;;;;0.70;0.70;;;;;;;7.29;100.00;98848.56;6069511;23;20054;-94
2023/01/09 07:53:50;;;;;;;2.33;1.50;;;;;;;7.39;100.00;98864.03;6069221;23;20009;-93
2023/01/09 07:56:16;;;;;;;1.08;1.02;;;;;;;7.43;100.00;98870.19;6044857;23;20018;-92
2023/01/09 07:58:41;;;;;;;0.65;0.65;;;;;;;7.43;100.00;98875.72;6045668;23;20394;-92
2023/01/09 08:01:07;;;;;;;0.40;0.40;;;;;;;7.35;100.00;98852.31;6021039;23;20018;-91
2023/01/09 08:03:32;;;;;;;2.35;1.20;;;;;;;7.36;100.00;98853.84;6044498;23;20002;-90
2023/01/09 08:05:58;;;;;;;0.10;0.10;;;;;;;7.37;100.00;98847.13;6068728;23;20018;-91
2023/01/09 08:08:24;;;;;;;0.10;0.10;;;;;;;7.35;100.00;98863.38;6020956;23;20046;-92
2023/01/09 08:10:50;;;;;;;1.45;1.35;;;;;;;7.42;100.00;98876.91;6068235;23;20494;-92
2023/01/09 08:13:16;;;;;;;1.55;1.45;;;;;;;7.28;100.00;98860.81;6068339;23;20101;-92
2023/01/09 08:15:41;;;;;;;1.27;1.00;;;;;;;7.33;100.00;98870.53;6020651;23;20014;-91
2023/01/09 08:18:07;;;;;;;1.23;1.13;;;;;;;7.32;100.00;98872.50;6043458;23;20444;-91
2023/01/09 08:20:32;;;;;;;1.85;1.38;;;;;;;7.32;100.00;98866.25;6020664;23;20006;-92
2023/01/09 08:22:58;;;;;;;1.17;0.70;;;;;;;7.29;100.00;98858.81;6020992;23;20026;-91
2023/01/09 08:25:23;;;;;;;0.40;0.40;;;;;;;7.27;100.00;98847.47;6043411;23;20010;-92
2023/01/09 08:27:49;;;;;;;0.60;0.60;;;;;;;7.24;100.00;98846.38;6021167;23;20041;-92
2023/01/09 08:30:16;;;;;;;0.50;0.35;;;;;;;7.18;100.00;98837.13;6044112;23;20388;-91
2023/01/09 08:32:41;;;;;;;0.47;0.43;;;;;;;7.13;100.00;98832.16;6044273;23;20007;-90
2023/01/09 08:35:07;;;;;;;0.45;0.45;;;;;;;7.09;100.00;98828.72;6020461;23;20026;-90
2023/01/09 08:37:33;;;;;;;0.22;0.22;;;;;;;7.14;100.00;98830.94;6068822;23;20061;-91
2023/01/09 08:39:58;;;;;;;2.42;1.23;;;;;;;7.09;100.00;98816.94;6020301;23;20387;-91
2023/01/09 08:47:53;;;;;;;1.38;1.27;;;;;;;7.11;100.00;98798.75;6071208;23;19955;-93
2023/01/09 08:50:18;;;;;;;0.90;0.90;;;;;;;7.24;100.00;98807.75;6070437;23;20003;-93
2023/01/09 08:52:44;;;;;;;0.38;0.38;;;;;;;7.17;100.00;98796.97;6046754;23;20010;-91
2023/01/09 08:55:09;;;;;;;1.35;0.32;;;;;;;7.26;100.00;98813.59;6021633;23;20359;-92
2023/01/09 08:57:35;;;;;;;1.70;1.60;;;;;;;7.30;100.00;98817.03;6045665;23;20018;-93
2023/01/09 09:00:01;;;;;;;1.67;1.50;;;;;;;7.30;100.00;98833.56;6021691;23;20042;-91
2023/01/09 09:02:27;;;;;;;1.15;0.88;;;;;;;7.19;100.00;98819.38;6021449;23;20424;-93
2023/01/09 09:04:54;;;;;;;0.98;0.98;;;;;;;7.05;100.00;98786.72;6020982;23;20018;-93
2023/01/09 09:07:29;;;;;;;1.42;1.42;;;;;;;7.24;100.00;98813.25;6045733;23;20018;-92
2023/01/09 09:09:55;;;;;;;1.30;1.20;;;;;;;7.10;100.00;98797.19;6070299;23;20018;-93
2023/01/09 09:12:21;;;;;;;0.82;0.82;;;;;;;7.21;100.00;98816.91;6044627;23;20553;-91
2023/01/09 09:17:32;;;;;;;0.20;0.20;;;;;;;7.22;100.00;98815.72;6072012;23;20021;-93
2023/01/09 09:19:58;;;;;;;0.93;0.93;;;;;;;7.26;100.00;98821.09;6020518;23;20448;-91
2023/01/09 09:22:24;;;;;;;2.00;0.63;;;;;;;7.22;100.00;98803.91;6070104;23;20038;-91
2023/01/09 09:24:50;;;;;;;0.30;0.30;;;;;;;7.13;100.00;98798.28;6046624;23;20061;-92
2023/01/09 09:27:16;;;;;;;0.43;0.43;;;;;;;7.22;100.00;98795.63;6071009;23;20025;-91
2023/01/09 09:29:41;;;;;;;1.95;1.85;;;;;;;7.19;100.00;98802.81;6021676;23;20450;-91
2023/01/09 09:32:07;;;;;;;0.45;0.45;;;;;;;7.20;100.00;98789.81;6045756;23;20526;-93
2023/01/09 09:34:32;;;;;;;1.08;0.98;;;;;;;7.36;100.00;98804.19;6020843;23;20019;-94
2023/01/09 09:36:58;;;;;;;1.40;1.30;;;;;;;7.31;100.00;98795.72;6044700;23;20392;-94
2023/01/09 09:39:24;;;;;;;0.73;0.73;;;;;;;7.33;100.00;98794.06;6021916;23;20018;-93
2023/01/09 09:45:21;;;;;;;0.20;0.20;;;;;;;7.46;100.00;98797.56;6074042;23;20026;-94
2023/01/09 09:48:08;;;;;;;1.70;1.60;;;;;;;7.41;100.00;98783.56;6049723;23;20041;-93
2023/01/09 09:50:51;;;;;;;0.68;0.65;;;;;;;7.45;100.00;98790.50;6023999;23;20037;-95
2023/01/09 09:53:36;;;;;;;1.20;1.17;;;;;;;7.47;100.00;98781.78;6046964;23;20473;-94
2023/01/09 09:56:03;;;;;;;7.55;2.83;;;;;;;7.48;100.00;98781.31;6096680;23;20017;-93
2023/01/09 09:58:39;;;;;;;0.82;0.82;;;;;;;7.46;100.00;98769.97;6047360;23;20082;-93
2023/01/09 10:01:05;;;;;;;0.82;0.82;;;;;;;7.39;100.00;98753.66;6047245;23;20069;-94
2023/01/09 10:03:37;;;;;;;1.02;1.00;;;;;;;7.33;100.00;98741.66;6023370;23;20010;-94
2023/01/09 10:06:31;;;;;;;1.08;1.05;;;;;;;7.49;100.00;98741.47;6023816;23;20018;-93
2023/01/09 10:08:56;;;;;;;1.73;1.63;;;;;;;7.51;100.00;98743.81;6015278;23;20387;-94
2023/01/09 10:11:38;;;;;;;1.90;1.80;;;;;;;7.39;100.00;98730.81;6047152;23;20089;-93
2023/01/09 10:14:04;;;;;;;0.30;0.30;;;;;;;7.45;100.00;98743.59;6023520;23;20022;-94
2023/01/09 10:16:42;;;;;;;0.40;0.40;;;;;;;7.52;100.00;98725.25;6047572;23;20014;-96
2023/01/09 10:19:39;;;;;;;1.52;1.42;;;;;;;7.54;100.00;98731.88;6046819;23;20455;-94
2023/01/09 10:22:16;;;;;;;0.40;0.40;;;;;;;7.33;100.00;98688.47;6071682;23;20467;-95
2023/01/09 10:25:18;;;;;;;1.35;1.25;;;;;;;7.62;100.00;98715.81;6047405;23;20049;-94
2023/01/09 10:27:56;;;;;;;0.68;0.68;;;;;;;7.67;100.00;98710.50;6071301;23;20046;-94
2023/01/09 10:30:27;;;;;;;2.28;1.42;;;;;;;7.66;100.00;98719.22;6070681;23;20069;-94
2023/01/09 10:33:01;;;;;;;2.28;1.63;;;;;;;7.70;100.00;98722.63;6023417;23;20092;-93
2023/01/09 10:35:49;;;;;;;2.10;1.90;;;;;;;7.65;100.00;98731.47;6046799;23;20018;-93
2023/01/09 10:38:22;;;;;;;1.15;1.05;;;;;;;7.66;100.00;98713.72;6071938;23;20101;-93
2023/01/09 10:40:55;;;;;;;2.58;2.00;;;;;;;7.61;100.00;98697.72;6071211;23;20018;-94
2023/01/09 10:43:29;;;;;;;0.52;0.52;;;;;;;7.63;100.00;98707.09;6047346;23;20101;-93
2023/01/09 10:46:00;;;;;;;0.45;0.45;;;;;;;7.72;100.00;98714.69;6070988;23;20025;-93
2023/01/09 10:48:36;;;;;;;1.88;1.75;;;;;;;7.64;100.00;98705.13;6022194;23;20006;-93
2023/01/09 10:51:08;;;;;;;1.85;1.05;;;;;;;7.47;100.00;98685.22;6023410;23;20029;-93
2023/01/09 10:53:41;;;;;;;1.97;1.83;;;;;;;7.61;100.00;98706.75;6047317;23;20014;-94
2023/01/09 10:56:23;;;;;;;1.88;1.60;;;;;;;7.61;100.00;98692.19;6049254;23;20132;-94
2023/01/09 13:59:25;;;;;;;1.23;1.23;;;;;;;7.43;100.00;98668.03;6094037;23;20101;-88
2023/01/09 14:01:51;;;;;;;2.10;1.92;;;;;;;7.44;100.00;98684.09;6016553;23;20011;-88
2023/01/09 14:04:17;;;;;;;1.20;1.15;;;;;;;7.52;100.00;98694.91;6015165;23;20046;-88
2023/01/09 14:07:15;;;;;;;0.47;0.47;;;;;;;7.48;100.00;98673.72;6017310;23;20015;-88
2023/01/09 14:09:47;;;;;;;1.10;0.73;;;;;;;7.48;100.00;98672.97;5993886;23;20026;-88
2023/01/09 14:12:14;;;;;;;0.45;0.45;;;;;;;7.54;100.00;98675.91;6017246;23;20339;-87
2023/01/09 14:17:15;;;;;;;0.35;0.35;;;;;;;7.50;100.00;98660.25;6095420;23;20022;-88
2023/01/09 14:19:41;;;;;;;;;;;;;;;7.57;100.00;98681.28;6022150;23;20097;-88
2023/01/09 14:22:17;;;;;;;0.20;0.20;;;;;;;7.54;100.00;98670.38;6022025;23;20004;-89
2023/01/09 14:24:51;;;;;;;5.00;0.60;;;;;;;7.58;100.00;98676.53;6021834;23;20353;-89
2023/01/09 14:27:49;;;;;;;0.40;0.40;;;;;;;7.52;100.00;98672.84;6022974;23;20025;-87
2023/01/09 14:30:27;;;;;;;0.00;0.00;;;;;;;7.41;100.00;98673.97;6045200;23;20577;-87
2023/01/09 14:33:01;;;;;;;0.20;0.20;;;;;;;7.37;100.00;98673.34;6069244;23;20021;-88
2023/01/09 14:38:31;;;;;;;0.00;0.00;;;;;;;7.19;100.00;98673.19;6096062;23;20105;-88
2023/01/09 14:41:05;;;;;;;0.00;0.00;;;;;;;7.04;100.00;98656.34;6021882;23;20028;-89
2023/01/09 14:43:40;;;;;;;0.32;0.32;;;;;;;7.09;100.00;98666.06;6045343;23;20014;-88
2023/01/09 14:46:12;;;;;;;0.03;0.03;;;;;;;6.99;100.00;98658.94;6021424;23;20022;-88
2023/01/09 14:48:44;;;;;;;0.15;0.15;;;;;;;6.98;100.00;98680.22;6045197;23;20404;-89
2023/01/09 14:51:14;;;;;;;0.43;0.30;;;;;;;6.95;100.00;98681.09;6021431;23;20019;-89
2023/01/09 15:43:18;;;;;;;0.10;0.10;;;;;;;6.43;100.00;98656.81;6067378;23;20593;-93
2023/01/09 15:45:44;;;;;;;0.10;0.10;;;;;;;6.51;100.00;98696.69;5997610;23;20054;-94
2023/01/09 15:48:23;;;;;;;3.78;3.47;;;;;;;6.53;100.00;98705.31;6023428;23;20006;-94
2023/01/09 15:50:51;;;;;;;0.63;0.63;;;;;;;6.37;100.00;98682.63;5993541;23;20014;-95
2023/01/09 15:53:20;;;;;;;0.00;0.00;;;;;;;6.28;100.00;98685.25;6017635;23;20032;-93
2023/01/09 15:56:19;;;;;;;0.00;0.00;;;;;;;6.35;100.00;98710.59;5992598;23;20471;-94